Britannia — VY5348 — position and weather

sailwx.info

Track history (hours):
 
Tides and Currents Weather Stations Pressure Air Temp Water Temp Dewpoint Dewpoint Depression Visibility Wind Speed Wind Dir Waves Ship Positions

Britannia

Last reported at 2014-Aug-21 21:33 UTC. Time now 2014-Aug-21 22:05 UTC.
Position N 49°18' W 123°08'.

Type: Ship (hazmat cat B). MMSI: 316021351.

Date/timePositionNaut miles runAvg speedWind from/ knotsBaromVisibWave heightAir tempDewpointWater temp
2014-Aug-21 21:33N 49°18' W 123°08'0 0.0
2014-Aug-21 20:34N 49°18' W 123°08'0 0.0
2014-Aug-21 19:34N 49°18' W 123°08'0 0.0
2014-Aug-21 18:34N 49°18' W 123°08'0 0.0
2014-Aug-21 17:34N 49°18' W 123°08'0 0.0
2014-Aug-21 16:34N 49°18' W 123°08'0 0.0
2014-Aug-21 15:33N 49°18' W 123°08'0 0.0
2014-Aug-21 14:34N 49°18' W 123°08'0 0.0
2014-Aug-21 13:33N 49°18' W 123°08'0 0.0
2014-Aug-21 12:33N 49°18' W 123°08'0 0.0
2014-Aug-21 11:33N 49°18' W 123°08'0 0.0
2014-Aug-21 10:34N 49°18' W 123°08'0 0.0
2014-Aug-21 09:33N 49°18' W 123°08'0 0.0
2014-Aug-21 08:34N 49°18' W 123°08'0 0.0
2014-Aug-21 07:33N 49°18' W 123°08'0 0.0
2014-Aug-21 06:33N 49°18' W 123°08'0 0.0
2014-Aug-21 05:34N 49°18' W 123°08'0 0.0
2014-Aug-21 04:33N 49°18' W 123°08'0 0.0
2014-Aug-21 03:34N 49°18' W 123°08'0 0.0
2014-Aug-21 02:33N 49°18' W 123°08'0 0.0
2014-Aug-21 01:33N 49°18' W 123°08'0 0.0
2014-Aug-21 00:33N 49°18' W 123°08'0 0.0
2014-Aug-20 23:33N 49°18' W 123°08'0 0.0
2014-Aug-20 22:33N 49°18' W 123°08'0 0.0
2014-Aug-20 21:33N 49°18' W 123°08'0 0.0
2014-Aug-20 20:33N 49°18' W 123°08'0 0.0
2014-Aug-20 19:33N 49°18' W 123°08'0 0.0
2014-Aug-20 18:33N 49°18' W 123°08'0 0.0
2014-Aug-20 17:33N 49°18' W 123°08'0 0.0
2014-Aug-20 16:33N 49°18' W 123°08'0 0.0
2014-Aug-20 15:34N 49°18' W 123°08'0 0.0
2014-Aug-20 14:33N 49°18' W 123°08'0 0.0
2014-Aug-20 13:33N 49°18' W 123°08'0 0.0
2014-Aug-20 12:33N 49°18' W 123°08'0 0.0
2014-Aug-20 11:33N 49°18' W 123°08'0 0.0
2014-Aug-20 10:33N 49°18' W 123°08'0 0.0
2014-Aug-20 09:33N 49°18' W 123°08'0 0.0
2014-Aug-20 08:34N 49°18' W 123°08'0 0.0
2014-Aug-20 07:33N 49°18' W 123°08'1 0.6
2014-Aug-20 06:33N 49°18' W 123°07'1 0.5
2014-Aug-20 05:33N 49°18' W 123°08'0 0.0
2014-Aug-20 04:34N 49°18' W 123°08'4 3.8
2014-Aug-20 03:33N 49°20' W 123°13'5 4.9
2014-Aug-20 02:33N 49°16' W 123°08'1 1.5
2014-Aug-20 01:33N 49°18' W 123°08'0 0.0
2014-Aug-20 00:34N 49°18' W 123°08'0 0.0
2014-Aug-19 23:34N 49°18' W 123°08'0 0.0
2014-Aug-19 22:33N 49°18' W 123°08'0 0.0
2014-Aug-19 21:33N 49°18' W 123°08'0 0.0
2014-Aug-19 20:33N 49°18' W 123°08'0 0.0
2014-Aug-19 19:34N 49°18' W 123°08'0 0.0
2014-Aug-19 18:33N 49°18' W 123°08'0 0.0
2014-Aug-19 17:34N 49°18' W 123°08'0 0.0
2014-Aug-19 16:33N 49°18' W 123°08'0 0.0
2014-Aug-19 15:33N 49°18' W 123°08'0 0.0
2014-Aug-19 14:33N 49°18' W 123°08'0 0.0
2014-Aug-19 13:34N 49°18' W 123°08'0 0.0
2014-Aug-19 12:33N 49°18' W 123°08'0 0.0
2014-Aug-19 11:34N 49°18' W 123°08'0 0.0
2014-Aug-19 10:33N 49°18' W 123°08'0 0.0
2014-Aug-19 09:34N 49°18' W 123°08'0 0.0
2014-Aug-19 08:33N 49°18' W 123°08'0 0.0
2014-Aug-19 07:34N 49°18' W 123°08'0 0.0
2014-Aug-19 06:33N 49°18' W 123°08'0 0.0
2014-Aug-19 05:33N 49°18' W 123°08'0 0.0
2014-Aug-19 04:33N 49°18' W 123°08'0 0.0
2014-Aug-19 03:33N 49°18' W 123°08'0 0.0
2014-Aug-19 02:33N 49°18' W 123°08'0 0.0
2014-Aug-19 01:34N 49°18' W 123°08'0 0.0
2014-Aug-19 00:34N 49°18' W 123°08'0 0.0
2014-Aug-18 23:34N 49°18' W 123°08'0 0.0
2014-Aug-18 22:34N 49°18' W 123°08'1 0.9
2014-Aug-18 21:33N 49°19' W 123°08'9 8.7
2014-Aug-18 20:33N 49°24' W 123°18'7 2.9
2014-Aug-18 18:10N 49°25' W 123°29'710.9
2014-Aug-18 17:33N 49°25' W 123°18'9 9.2
2014-Aug-18 16:34N 49°19' W 123°08'1 1.2
2014-Aug-18 15:33N 49°18' W 123°08'0 0.0
2014-Aug-18 14:33N 49°18' W 123°08'0 0.0
2014-Aug-18 13:33N 49°18' W 123°08'0 0.0
2014-Aug-18 12:33N 49°18' W 123°08'0 0.0
2014-Aug-18 11:33N 49°18' W 123°08'0 0.0
2014-Aug-18 10:34N 49°18' W 123°08'0 0.0
2014-Aug-18 09:34N 49°18' W 123°08'0 0.0
2014-Aug-18 08:33N 49°18' W 123°08'0 0.0
2014-Aug-18 07:33N 49°18' W 123°08'0 0.0
2014-Aug-18 06:34N 49°18' W 123°08'0 0.0
2014-Aug-18 05:34N 49°18' W 123°08'0 0.0
2014-Aug-18 04:34N 49°18' W 123°08'1 0.9
2014-Aug-18 03:34N 49°18' W 123°07'5 5.1
2014-Aug-18 02:33N 49°20' W 123°14'5 5.1
2014-Aug-18 01:34N 49°18' W 123°07'1 0.5
2014-Aug-18 00:33N 49°18' W 123°08'0 0.0
2014-Aug-17 18:34N 49°18' W 123°08'0 0.0
2014-Aug-17 17:34N 49°18' W 123°08'0 0.0
2014-Aug-17 16:34N 49°18' W 123°08'0 0.0
2014-Aug-17 15:34N 49°18' W 123°08'0 0.0
2014-Aug-17 14:33N 49°18' W 123°08'0 0.0
2014-Aug-17 13:33N 49°18' W 123°08'0 0.0
2014-Aug-17 12:34N 49°18' W 123°08'0 0.0
2014-Aug-17 11:34N 49°18' W 123°08'0 0.0
2014-Aug-17 10:33N 49°18' W 123°08'0 0.0
2014-Aug-17 09:33N 49°18' W 123°08'0 0.0
2014-Aug-17 08:34N 49°18' W 123°08'0 0.0
2014-Aug-17 07:34N 49°18' W 123°08'4 4.3
2014-Aug-17 06:34N 49°20' W 123°14'2 2.3
2014-Aug-17 05:34N 49°19' W 123°10'2 2.2
2014-Aug-17 04:33N 49°18' W 123°08'0 0.0
2014-Aug-17 03:34N 49°18' W 123°08'0 0.0
2014-Aug-17 02:33N 49°18' W 123°08'0 0.0
2014-Aug-17 01:34N 49°18' W 123°08'0 0.0
2014-Aug-17 00:33N 49°18' W 123°08'0 0.0
2014-Aug-16 23:34N 49°18' W 123°08'0 0.0
2014-Aug-16 22:33N 49°18' W 123°08'0 0.0
2014-Aug-16 21:33N 49°18' W 123°08'0 0.0
2014-Aug-16 20:33N 49°18' W 123°08'1 0.7
2014-Aug-16 19:34N 49°18' W 123°07'9 9.5
2014-Aug-16 18:34N 49°24' W 123°18'6 3.0
2014-Aug-16 16:29N 49°30' W 123°18'1011.2
2014-Aug-16 15:34N 49°20' W 123°16'6 5.7
2014-Aug-16 14:33N 49°18' W 123°08'0 0.0
2014-Aug-16 13:33N 49°18' W 123°08'0 0.0
2014-Aug-16 12:33N 49°18' W 123°08'0 0.0
2014-Aug-16 11:33N 49°18' W 123°08'0 0.0
2014-Aug-16 10:33N 49°18' W 123°08'0 0.0
2014-Aug-16 09:34N 49°18' W 123°08'0 0.0
2014-Aug-16 08:33N 49°18' W 123°08'0 0.0
2014-Aug-16 07:33N 49°18' W 123°08'0 0.0
2014-Aug-16 06:33N 49°18' W 123°08'0 0.0
2014-Aug-16 05:33N 49°18' W 123°08'0 0.0
2014-Aug-16 04:34N 49°18' W 123°08'0 0.0
2014-Aug-16 03:33N 49°18' W 123°08'0 0.0
2014-Aug-16 02:33N 49°18' W 123°08'0 0.0
2014-Aug-16 01:33N 49°18' W 123°08'0 0.0
2014-Aug-16 00:33N 49°18' W 123°08'0 0.0
2014-Aug-15 23:34N 49°18' W 123°08'0 0.0
2014-Aug-15 22:33N 49°18' W 123°08'2 1.8
2014-Aug-15 21:33N 49°19' W 123°06'7 7.5
2014-Aug-15 20:33N 49°21' W 122°55'2 2.3
2014-Aug-15 19:34N 49°22' W 122°53'8 8.0
2014-Aug-15 18:34N 49°18' W 123°02'4 3.6
2014-Aug-15 17:34N 49°18' W 123°08'0 0.0
2014-Aug-15 16:34N 49°18' W 123°08'0 0.0
2014-Aug-15 15:34N 49°18' W 123°08'0 0.0
2014-Aug-15 14:34N 49°18' W 123°08'0 0.0
2014-Aug-15 13:34N 49°18' W 123°08'0 0.0
2014-Aug-15 12:33N 49°18' W 123°08'0 0.0
2014-Aug-15 11:34N 49°18' W 123°08'0 0.0
2014-Aug-15 10:34N 49°18' W 123°08'0 0.0
2014-Aug-15 09:33N 49°18' W 123°08'0 0.0
2014-Aug-15 08:34N 49°18' W 123°08'0 0.0
2014-Aug-15 07:33N 49°18' W 123°08'0 0.0
2014-Aug-15 06:34N 49°18' W 123°08'0 0.0
2014-Aug-15 05:34N 49°18' W 123°08'0 0.1
2014-Aug-15 04:34N 49°18' W 123°08'1 1.2
2014-Aug-15 03:34N 49°16' W 123°08'3 2.6
2014-Aug-15 02:34N 49°19' W 123°09'1 1.4
2014-Aug-15 01:34N 49°18' W 123°08'0 0.0
2014-Aug-15 00:34N 49°18' W 123°08'0 0.0
2014-Aug-14 23:33N 49°18' W 123°08'0 0.0
2014-Aug-14 22:34N 49°18' W 123°08'0 0.0
2014-Aug-14 21:34N 49°18' W 123°08'0 0.0
2014-Aug-14 20:34N 49°18' W 123°08'0 0.0
2014-Aug-14 19:33N 49°18' W 123°08'0 0.0
2014-Aug-14 18:34N 49°18' W 123°08'0 0.0
2014-Aug-14 17:33N 49°18' W 123°08'0 0.0
2014-Aug-14 16:34N 49°18' W 123°08'0 0.0
2014-Aug-14 15:34N 49°18' W 123°08'0 0.0
2014-Aug-14 14:33N 49°18' W 123°08'0 0.0
2014-Aug-14 13:33N 49°18' W 123°08'0 0.0
2014-Aug-14 12:34N 49°18' W 123°08'0 0.0
2014-Aug-14 11:33N 49°18' W 123°08'0 0.0
2014-Aug-14 10:34N 49°18' W 123°08'0 0.0
2014-Aug-14 09:33N 49°18' W 123°08'0 0.0
2014-Aug-14 08:34N 49°18' W 123°08'0 0.0
2014-Aug-14 07:34N 49°18' W 123°08'0 0.0
2014-Aug-14 06:34N 49°18' W 123°08'0 0.0
2014-Aug-14 05:34N 49°18' W 123°08'0 0.0
2014-Aug-14 04:34N 49°18' W 123°08'0 0.0
2014-Aug-14 03:34N 49°18' W 123°08'0 0.0
2014-Aug-14 02:34N 49°18' W 123°08'0 0.0
2014-Aug-14 01:34N 49°18' W 123°08'0 0.0
2014-Aug-14 00:34N 49°18' W 123°08'0 0.0
2014-Aug-13 23:34N 49°18' W 123°08'0 0.0
2014-Aug-13 22:34N 49°18' W 123°08'0 0.0
2014-Aug-13 21:34N 49°18' W 123°08'0 0.0
2014-Aug-13 20:34N 49°18' W 123°08'0 0.0
2014-Aug-13 19:34N 49°18' W 123°08'0 0.0
2014-Aug-13 18:34N 49°18' W 123°08'0 0.0
2014-Aug-13 17:34N 49°18' W 123°08'0 0.0
2014-Aug-13 16:33N 49°18' W 123°08'0 0.0
2014-Aug-13 15:34N 49°18' W 123°08'0 0.0
2014-Aug-13 14:33N 49°18' W 123°08'0 0.0
2014-Aug-13 13:33N 49°18' W 123°08'0 0.0
2014-Aug-13 12:34N 49°18' W 123°08'0 0.0
2014-Aug-13 11:34N 49°18' W 123°08'0 0.0
2014-Aug-13 10:34N 49°18' W 123°08'0 0.0
2014-Aug-13 09:33N 49°18' W 123°08'0 0.0
2014-Aug-13 08:34N 49°18' W 123°08'0 0.0
2014-Aug-13 07:34N 49°18' W 123°08'0 0.0
2014-Aug-13 06:34N 49°18' W 123°08'0 0.0
2014-Aug-13 05:33N 49°18' W 123°08'0 0.0
2014-Aug-13 04:33N 49°18' W 123°08'0 0.0
2014-Aug-13 03:34N 49°18' W 123°08'0 0.0
2014-Aug-13 02:33N 49°18' W 123°08'0 0.0
2014-Aug-13 01:34N 49°18' W 123°08'0 0.0
2014-Aug-13 00:34N 49°18' W 123°08'0 0.0
2014-Aug-12 23:33N 49°18' W 123°08'0 0.0
2014-Aug-12 22:34N 49°18' W 123°08'0 0.0
2014-Aug-12 21:34N 49°18' W 123°08'0 0.0
2014-Aug-12 20:34N 49°18' W 123°08'0 0.0
2014-Aug-12 19:34N 49°18' W 123°08'0 0.0
2014-Aug-12 18:34N 49°18' W 123°08'0 0.0
2014-Aug-12 17:34N 49°18' W 123°08'0 0.0
2014-Aug-12 16:34N 49°18' W 123°08'0 0.0
2014-Aug-12 15:34N 49°18' W 123°08'0 0.0
2014-Aug-12 14:33N 49°18' W 123°08'0 0.0
2014-Aug-12 13:34N 49°18' W 123°08'0 0.0
2014-Aug-12 12:33N 49°18' W 123°08'0 0.0
2014-Aug-12 11:34N 49°18' W 123°08'0 0.0
2014-Aug-12 10:34N 49°18' W 123°08'0 0.0
2014-Aug-12 09:34N 49°18' W 123°08'0 0.0
2014-Aug-12 08:34N 49°18' W 123°08'0 0.0
2014-Aug-12 07:34N 49°18' W 123°08'0 0.0
2014-Aug-12 06:33N 49°18' W 123°08'0 0.0
2014-Aug-12 05:34N 49°18' W 123°08'0 0.0
2014-Aug-12 04:34N 49°18' W 123°08'0 0.0
2014-Aug-12 03:34N 49°18' W 123°08'0 0.0
2014-Aug-12 02:34N 49°18' W 123°08'0 0.0
2014-Aug-12 01:34N 49°18' W 123°08'0 0.0
2014-Aug-12 00:33N 49°18' W 123°08'0 0.0
2014-Aug-11 23:34N 49°18' W 123°08'0 0.0
2014-Aug-11 22:34N 49°18' W 123°08'  
Track history (hours):
 
Tides and Currents Weather Stations Pressure Air Temp Water Temp Dewpoint Dewpoint Depression Visibility Wind Speed Wind Dir Waves Ship Positions

Britannia

Last reported at 2014-Aug-21 21:33 UTC. Time now 2014-Aug-21 22:05 UTC.
Position N 49°18' W 123°08'.

Type: Ship (hazmat cat B). MMSI: 316021351.

Date/timePositionNaut miles runAvg speedWind from/ knotsBaromVisibWave heightAir tempDewpointWater temp
2014-Aug-21 21:33N 49°18' W 123°08'0 0.0
2014-Aug-21 20:34N 49°18' W 123°08'0 0.0
2014-Aug-21 19:34N 49°18' W 123°08'0 0.0
2014-Aug-21 18:34N 49°18' W 123°08'0 0.0
2014-Aug-21 17:34N 49°18' W 123°08'0 0.0
2014-Aug-21 16:34N 49°18' W 123°08'0 0.0
2014-Aug-21 15:33N 49°18' W 123°08'0 0.0
2014-Aug-21 14:34N 49°18' W 123°08'0 0.0
2014-Aug-21 13:33N 49°18' W 123°08'0 0.0
2014-Aug-21 12:33N 49°18' W 123°08'0 0.0
2014-Aug-21 11:33N 49°18' W 123°08'0 0.0
2014-Aug-21 10:34N 49°18' W 123°08'0 0.0
2014-Aug-21 09:33N 49°18' W 123°08'0 0.0
2014-Aug-21 08:34N 49°18' W 123°08'0 0.0
2014-Aug-21 07:33N 49°18' W 123°08'0 0.0
2014-Aug-21 06:33N 49°18' W 123°08'0 0.0
2014-Aug-21 05:34N 49°18' W 123°08'0 0.0
2014-Aug-21 04:33N 49°18' W 123°08'0 0.0
2014-Aug-21 03:34N 49°18' W 123°08'0 0.0
2014-Aug-21 02:33N 49°18' W 123°08'0 0.0
2014-Aug-21 01:33N 49°18' W 123°08'0 0.0
2014-Aug-21 00:33N 49°18' W 123°08'0 0.0
2014-Aug-20 23:33N 49°18' W 123°08'0 0.0
2014-Aug-20 22:33N 49°18' W 123°08'0 0.0
2014-Aug-20 21:33N 49°18' W 123°08'0 0.0
2014-Aug-20 20:33N 49°18' W 123°08'0 0.0
2014-Aug-20 19:33N 49°18' W 123°08'0 0.0
2014-Aug-20 18:33N 49°18' W 123°08'0 0.0
2014-Aug-20 17:33N 49°18' W 123°08'0 0.0
2014-Aug-20 16:33N 49°18' W 123°08'0 0.0
2014-Aug-20 15:34N 49°18' W 123°08'0 0.0
2014-Aug-20 14:33N 49°18' W 123°08'0 0.0
2014-Aug-20 13:33N 49°18' W 123°08'0 0.0
2014-Aug-20 12:33N 49°18' W 123°08'0 0.0
2014-Aug-20 11:33N 49°18' W 123°08'0 0.0
2014-Aug-20 10:33N 49°18' W 123°08'0 0.0
2014-Aug-20 09:33N 49°18' W 123°08'0 0.0
2014-Aug-20 08:34N 49°18' W 123°08'0 0.0
2014-Aug-20 07:33N 49°18' W 123°08'1 0.6
2014-Aug-20 06:33N 49°18' W 123°07'1 0.5
2014-Aug-20 05:33N 49°18' W 123°08'0 0.0
2014-Aug-20 04:34N 49°18' W 123°08'4 3.8
2014-Aug-20 03:33N 49°20' W 123°13'5 4.9
2014-Aug-20 02:33N 49°16' W 123°08'1 1.5
2014-Aug-20 01:33N 49°18' W 123°08'0 0.0
2014-Aug-20 00:34N 49°18' W 123°08'0 0.0
2014-Aug-19 23:34N 49°18' W 123°08'0 0.0
2014-Aug-19 22:33N 49°18' W 123°08'0 0.0
2014-Aug-19 21:33N 49°18' W 123°08'0 0.0
2014-Aug-19 20:33N 49°18' W 123°08'0 0.0
2014-Aug-19 19:34N 49°18' W 123°08'0 0.0
2014-Aug-19 18:33N 49°18' W 123°08'0 0.0
2014-Aug-19 17:34N 49°18' W 123°08'0 0.0
2014-Aug-19 16:33N 49°18' W 123°08'0 0.0
2014-Aug-19 15:33N 49°18' W 123°08'0 0.0
2014-Aug-19 14:33N 49°18' W 123°08'0 0.0
2014-Aug-19 13:34N 49°18' W 123°08'0 0.0
2014-Aug-19 12:33N 49°18' W 123°08'0 0.0
2014-Aug-19 11:34N 49°18' W 123°08'0 0.0
2014-Aug-19 10:33N 49°18' W 123°08'0 0.0
2014-Aug-19 09:34N 49°18' W 123°08'0 0.0
2014-Aug-19 08:33N 49°18' W 123°08'0 0.0
2014-Aug-19 07:34N 49°18' W 123°08'0 0.0
2014-Aug-19 06:33N 49°18' W 123°08'0 0.0
2014-Aug-19 05:33N 49°18' W 123°08'0 0.0
2014-Aug-19 04:33N 49°18' W 123°08'0 0.0
2014-Aug-19 03:33N 49°18' W 123°08'0 0.0
2014-Aug-19 02:33N 49°18' W 123°08'0 0.0
2014-Aug-19 01:34N 49°18' W 123°08'0 0.0
2014-Aug-19 00:34N 49°18' W 123°08'0 0.0
2014-Aug-18 23:34N 49°18' W 123°08'0 0.0
2014-Aug-18 22:34N 49°18' W 123°08'1 0.9
2014-Aug-18 21:33N 49°19' W 123°08'9 8.7
2014-Aug-18 20:33N 49°24' W 123°18'7 2.9
2014-Aug-18 18:10N 49°25' W 123°29'710.9
2014-Aug-18 17:33N 49°25' W 123°18'9 9.2
2014-Aug-18 16:34N 49°19' W 123°08'1 1.2
2014-Aug-18 15:33N 49°18' W 123°08'0 0.0
2014-Aug-18 14:33N 49°18' W 123°08'0 0.0
2014-Aug-18 13:33N 49°18' W 123°08'0 0.0
2014-Aug-18 12:33N 49°18' W 123°08'0 0.0
2014-Aug-18 11:33N 49°18' W 123°08'0 0.0
2014-Aug-18 10:34N 49°18' W 123°08'0 0.0
2014-Aug-18 09:34N 49°18' W 123°08'0 0.0
2014-Aug-18 08:33N 49°18' W 123°08'0 0.0
2014-Aug-18 07:33N 49°18' W 123°08'0 0.0
2014-Aug-18 06:34N 49°18' W 123°08'0 0.0
2014-Aug-18 05:34N 49°18' W 123°08'0 0.0
2014-Aug-18 04:34N 49°18' W 123°08'1 0.9
2014-Aug-18 03:34N 49°18' W 123°07'5 5.1
2014-Aug-18 02:33N 49°20' W 123°14'5 5.1
2014-Aug-18 01:34N 49°18' W 123°07'1 0.5
2014-Aug-18 00:33N 49°18' W 123°08'0 0.0
2014-Aug-17 18:34N 49°18' W 123°08'0 0.0
2014-Aug-17 17:34N 49°18' W 123°08'0 0.0
2014-Aug-17 16:34N 49°18' W 123°08'0 0.0
2014-Aug-17 15:34N 49°18' W 123°08'0 0.0
2014-Aug-17 14:33N 49°18' W 123°08'0 0.0
2014-Aug-17 13:33N 49°18' W 123°08'0 0.0
2014-Aug-17 12:34N 49°18' W 123°08'0 0.0
2014-Aug-17 11:34N 49°18' W 123°08'0 0.0
2014-Aug-17 10:33N 49°18' W 123°08'0 0.0
2014-Aug-17 09:33N 49°18' W 123°08'0 0.0
2014-Aug-17 08:34N 49°18' W 123°08'0 0.0
2014-Aug-17 07:34N 49°18' W 123°08'4 4.3
2014-Aug-17 06:34N 49°20' W 123°14'2 2.3
2014-Aug-17 05:34N 49°19' W 123°10'2 2.2
2014-Aug-17 04:33N 49°18' W 123°08'0 0.0
2014-Aug-17 03:34N 49°18' W 123°08'0 0.0
2014-Aug-17 02:33N 49°18' W 123°08'0 0.0
2014-Aug-17 01:34N 49°18' W 123°08'0 0.0
2014-Aug-17 00:33N 49°18' W 123°08'0 0.0
2014-Aug-16 23:34N 49°18' W 123°08'0 0.0
2014-Aug-16 22:33N 49°18' W 123°08'0 0.0
2014-Aug-16 21:33N 49°18' W 123°08'0 0.0
2014-Aug-16 20:33N 49°18' W 123°08'1 0.7
2014-Aug-16 19:34N 49°18' W 123°07'9 9.5
2014-Aug-16 18:34N 49°24' W 123°18'6 3.0
2014-Aug-16 16:29N 49°30' W 123°18'1011.2
2014-Aug-16 15:34N 49°20' W 123°16'6 5.7
2014-Aug-16 14:33N 49°18' W 123°08'0 0.0
2014-Aug-16 13:33N 49°18' W 123°08'0 0.0
2014-Aug-16 12:33N 49°18' W 123°08'0 0.0
2014-Aug-16 11:33N 49°18' W 123°08'0 0.0
2014-Aug-16 10:33N 49°18' W 123°08'0 0.0
2014-Aug-16 09:34N 49°18' W 123°08'0 0.0
2014-Aug-16 08:33N 49°18' W 123°08'0 0.0
2014-Aug-16 07:33N 49°18' W 123°08'0 0.0
2014-Aug-16 06:33N 49°18' W 123°08'0 0.0
2014-Aug-16 05:33N 49°18' W 123°08'0 0.0
2014-Aug-16 04:34N 49°18' W 123°08'0 0.0
2014-Aug-16 03:33N 49°18' W 123°08'0 0.0
2014-Aug-16 02:33N 49°18' W 123°08'0 0.0
2014-Aug-16 01:33N 49°18' W 123°08'0 0.0
2014-Aug-16 00:33N 49°18' W 123°08'0 0.0
2014-Aug-15 23:34N 49°18' W 123°08'0 0.0
2014-Aug-15 22:33N 49°18' W 123°08'2 1.8
2014-Aug-15 21:33N 49°19' W 123°06'7 7.5
2014-Aug-15 20:33N 49°21' W 122°55'2 2.3
2014-Aug-15 19:34N 49°22' W 122°53'8 8.0
2014-Aug-15 18:34N 49°18' W 123°02'4 3.6
2014-Aug-15 17:34N 49°18' W 123°08'0 0.0
2014-Aug-15 16:34N 49°18' W 123°08'0 0.0
2014-Aug-15 15:34N 49°18' W 123°08'0 0.0
2014-Aug-15 14:34N 49°18' W 123°08'0 0.0
2014-Aug-15 13:34N 49°18' W 123°08'0 0.0
2014-Aug-15 12:33N 49°18' W 123°08'0 0.0
2014-Aug-15 11:34N 49°18' W 123°08'0 0.0
2014-Aug-15 10:34N 49°18' W 123°08'0 0.0
2014-Aug-15 09:33N 49°18' W 123°08'0 0.0
2014-Aug-15 08:34N 49°18' W 123°08'0 0.0
2014-Aug-15 07:33N 49°18' W 123°08'0 0.0
2014-Aug-15 06:34N 49°18' W 123°08'0 0.0
2014-Aug-15 05:34N 49°18' W 123°08'0 0.1
2014-Aug-15 04:34N 49°18' W 123°08'1 1.2
2014-Aug-15 03:34N 49°16' W 123°08'3 2.6
2014-Aug-15 02:34N 49°19' W 123°09'1 1.4
2014-Aug-15 01:34N 49°18' W 123°08'0 0.0
2014-Aug-15 00:34N 49°18' W 123°08'0 0.0
2014-Aug-14 23:33N 49°18' W 123°08'0 0.0
2014-Aug-14 22:34N 49°18' W 123°08'0 0.0
2014-Aug-14 21:34N 49°18' W 123°08'0 0.0
2014-Aug-14 20:34N 49°18' W 123°08'0 0.0
2014-Aug-14 19:33N 49°18' W 123°08'0 0.0
2014-Aug-14 18:34N 49°18' W 123°08'0 0.0
2014-Aug-14 17:33N 49°18' W 123°08'0 0.0
2014-Aug-14 16:34N 49°18' W 123°08'0 0.0
2014-Aug-14 15:34N 49°18' W 123°08'0 0.0
2014-Aug-14 14:33N 49°18' W 123°08'0 0.0
2014-Aug-14 13:33N 49°18' W 123°08'0 0.0
2014-Aug-14 12:34N 49°18' W 123°08'0 0.0
2014-Aug-14 11:33N 49°18' W 123°08'0 0.0
2014-Aug-14 10:34N 49°18' W 123°08'0 0.0
2014-Aug-14 09:33N 49°18' W 123°08'0 0.0
2014-Aug-14 08:34N 49°18' W 123°08'0 0.0
2014-Aug-14 07:34N 49°18' W 123°08'0 0.0
2014-Aug-14 06:34N 49°18' W 123°08'0 0.0
2014-Aug-14 05:34N 49°18' W 123°08'0 0.0
2014-Aug-14 04:34N 49°18' W 123°08'0 0.0
2014-Aug-14 03:34N 49°18' W 123°08'0 0.0
2014-Aug-14 02:34N 49°18' W 123°08'0 0.0
2014-Aug-14 01:34N 49°18' W 123°08'0 0.0
2014-Aug-14 00:34N 49°18' W 123°08'0 0.0
2014-Aug-13 23:34N 49°18' W 123°08'0 0.0
2014-Aug-13 22:34N 49°18' W 123°08'0 0.0
2014-Aug-13 21:34N 49°18' W 123°08'0 0.0
2014-Aug-13 20:34N 49°18' W 123°08'0 0.0
2014-Aug-13 19:34N 49°18' W 123°08'0 0.0
2014-Aug-13 18:34N 49°18' W 123°08'0 0.0
2014-Aug-13 17:34N 49°18' W 123°08'0 0.0
2014-Aug-13 16:33N 49°18' W 123°08'0 0.0
2014-Aug-13 15:34N 49°18' W 123°08'0 0.0
2014-Aug-13 14:33N 49°18' W 123°08'0 0.0
2014-Aug-13 13:33N 49°18' W 123°08'0 0.0
2014-Aug-13 12:34N 49°18' W 123°08'0 0.0
2014-Aug-13 11:34N 49°18' W 123°08'0 0.0
2014-Aug-13 10:34N 49°18' W 123°08'0 0.0
2014-Aug-13 09:33N 49°18' W 123°08'0 0.0
2014-Aug-13 08:34N 49°18' W 123°08'0 0.0
2014-Aug-13 07:34N 49°18' W 123°08'0 0.0
2014-Aug-13 06:34N 49°18' W 123°08'0 0.0
2014-Aug-13 05:33N 49°18' W 123°08'0 0.0
2014-Aug-13 04:33N 49°18' W 123°08'0 0.0
2014-Aug-13 03:34N 49°18' W 123°08'0 0.0
2014-Aug-13 02:33N 49°18' W 123°08'0 0.0
2014-Aug-13 01:34N 49°18' W 123°08'0 0.0
2014-Aug-13 00:34N 49°18' W 123°08'0 0.0
2014-Aug-12 23:33N 49°18' W 123°08'0 0.0
2014-Aug-12 22:34N 49°18' W 123°08'0 0.0
2014-Aug-12 21:34N 49°18' W 123°08'0 0.0
2014-Aug-12 20:34N 49°18' W 123°08'0 0.0
2014-Aug-12 19:34N 49°18' W 123°08'0 0.0
2014-Aug-12 18:34N 49°18' W 123°08'0 0.0
2014-Aug-12 17:34N 49°18' W 123°08'0 0.0
2014-Aug-12 16:34N 49°18' W 123°08'0 0.0
2014-Aug-12 15:34N 49°18' W 123°08'0 0.0
2014-Aug-12 14:33N 49°18' W 123°08'0 0.0
2014-Aug-12 13:34N 49°18' W 123°08'0 0.0
2014-Aug-12 12:33N 49°18' W 123°08'0 0.0
2014-Aug-12 11:34N 49°18' W 123°08'0 0.0
2014-Aug-12 10:34N 49°18' W 123°08'0 0.0
2014-Aug-12 09:34N 49°18' W 123°08'0 0.0
2014-Aug-12 08:34N 49°18' W 123°08'0 0.0
2014-Aug-12 07:34N 49°18' W 123°08'0 0.0
2014-Aug-12 06:33N 49°18' W 123°08'0 0.0
2014-Aug-12 05:34N 49°18' W 123°08'0 0.0
2014-Aug-12 04:34N 49°18' W 123°08'0 0.0
2014-Aug-12 03:34N 49°18' W 123°08'0 0.0
2014-Aug-12 02:34N 49°18' W 123°08'0 0.0
2014-Aug-12 01:34N 49°18' W 123°08'0 0.0
2014-Aug-12 00:33N 49°18' W 123°08'0 0.0
2014-Aug-11 23:34N 49°18' W 123°08'0 0.0
2014-Aug-11 22:34N 49°18' W 123°08'  

Dump ship's entire track history